createdAt,value
2023-01-21T00:00:31.186Z,1.36
2023-01-21T00:05:54.889Z,1.32
2023-01-21T00:11:04.130Z,1.29
2023-01-21T00:16:07.602Z,1.32
2023-01-21T00:21:10.665Z,1.28
2023-01-21T00:26:13.872Z,1.28
2023-01-21T00:31:16.993Z,1.21
2023-01-21T00:36:22.362Z,1.13
2023-01-21T00:41:26.379Z,1.02
2023-01-21T00:46:29.416Z,1.00
2023-01-21T00:51:32.408Z,0.97
2023-01-21T00:56:35.382Z,0.95
2023-01-21T01:01:38.726Z,0.94
2023-01-21T01:06:41.708Z,0.98
2023-01-21T01:11:45.230Z,0.99
2023-01-21T01:16:49.002Z,1.02
2023-01-21T01:21:51.809Z,1.04
2023-01-21T01:26:54.758Z,1.05
2023-01-21T01:31:57.660Z,1.03
2023-01-21T01:37:00.559Z,1.03
2023-01-21T01:42:03.777Z,1.05
2023-01-21T01:47:06.788Z,1.11
2023-01-21T01:52:12.464Z,1.09
2023-01-21T01:57:20.675Z,1.10
2023-01-21T02:02:23.582Z,1.03
2023-01-21T02:07:29.358Z,1.03
2023-01-21T02:12:32.728Z,1.02
2023-01-21T02:17:58.313Z,1.00
2023-01-21T02:23:20.872Z,1.01
2023-01-21T02:29:01.469Z,0.99
2023-01-21T02:34:19.414Z,0.96
2023-01-21T02:39:37.472Z,1.03
2023-01-21T02:44:47.035Z,1.01
2023-01-21T02:49:55.833Z,1.00
2023-01-21T02:55:01.339Z,1.03
2023-01-21T03:00:11.544Z,0.97
2023-01-21T03:05:25.214Z,0.97
2023-01-21T03:11:00.126Z,0.89
2023-01-21T03:16:25.064Z,0.88
2023-01-21T03:21:31.644Z,0.92
2023-01-21T03:26:42.430Z,0.97
2023-01-21T03:31:50.607Z,0.99
2023-01-21T03:37:18.519Z,0.95
2023-01-21T03:42:22.992Z,0.91
2023-01-21T03:47:31.970Z,0.90
2023-01-21T03:52:38.837Z,0.94
2023-01-21T03:57:41.746Z,0.97
2023-01-21T04:02:44.642Z,0.97
2023-01-21T04:07:47.652Z,0.92
2023-01-21T04:12:50.549Z,0.90
2023-01-21T04:17:54.072Z,0.89
2023-01-21T04:22:56.974Z,0.88
2023-01-21T04:27:59.877Z,0.96
2023-01-21T04:33:03.701Z,0.99
2023-01-21T04:38:06.919Z,1.05
2023-01-21T04:43:09.875Z,1.09
2023-01-21T04:48:12.823Z,1.10
2023-01-21T04:53:15.735Z,1.17
2023-01-21T04:58:19.724Z,1.20
2023-01-21T05:03:22.665Z,1.24
2023-01-21T05:08:25.770Z,1.24
2023-01-21T05:13:28.680Z,1.20
2023-01-21T05:18:32.189Z,1.22
2023-01-21T05:23:35.204Z,1.23
2023-01-21T05:28:38.307Z,1.24
2023-01-21T05:33:44.089Z,1.24
2023-01-21T05:38:47.755Z,1.26
2023-01-21T05:43:50.602Z,1.29
2023-01-21T05:48:53.509Z,1.32
2023-01-21T05:53:56.414Z,1.31
2023-01-21T05:58:59.323Z,1.43
2023-01-21T06:04:02.219Z,1.50
2023-01-21T06:09:05.123Z,1.54
2023-01-21T06:14:08.027Z,1.57
2023-01-21T06:19:10.952Z,1.61
2023-01-21T06:24:14.182Z,1.54
2023-01-21T06:29:17.490Z,1.56
2023-01-21T06:34:20.376Z,1.57
2023-01-21T06:39:23.674Z,1.53
2023-01-21T06:44:26.681Z,1.53
2023-01-21T06:49:29.595Z,1.51
2023-01-21T06:54:33.410Z,1.50
2023-01-21T06:59:36.315Z,1.43
2023-01-21T07:04:39.323Z,1.43
2023-01-21T07:09:42.227Z,1.37
2023-01-21T07:14:45.239Z,1.30
2023-01-21T07:19:48.238Z,1.34
2023-01-21T07:24:51.352Z,1.31
2023-01-21T07:29:54.366Z,1.28
2023-01-21T07:34:57.261Z,1.30
2023-01-21T07:40:00.473Z,1.31
2023-01-21T07:45:04.293Z,1.28
2023-01-21T07:50:08.877Z,1.21
2023-01-21T07:55:12.826Z,1.23
2023-01-21T08:00:16.650Z,1.27
2023-01-21T08:05:19.626Z,1.25
2023-01-21T08:10:22.611Z,1.20
2023-01-21T08:15:25.511Z,1.23
2023-01-21T08:20:28.819Z,1.30
2023-01-21T08:25:32.344Z,1.33
2023-01-21T08:30:35.400Z,1.37
2023-01-21T08:35:38.669Z,1.40
2023-01-21T08:40:41.561Z,1.43
2023-01-21T08:45:45.296Z,1.43
2023-01-21T08:50:48.307Z,1.47
2023-01-21T08:55:51.199Z,1.53
2023-01-21T09:00:54.480Z,1.51
2023-01-21T09:06:01.797Z,1.50
2023-01-21T09:11:07.185Z,1.55
2023-01-21T09:16:18.892Z,1.60
2023-01-21T09:21:21.894Z,1.65
2023-01-21T09:26:25.409Z,1.60
2023-01-21T09:31:30.754Z,1.64
2023-01-21T09:36:35.115Z,1.60
2023-01-21T09:41:39.666Z,1.65
2023-01-21T09:46:55.155Z,1.85
2023-01-21T09:52:30.324Z,1.90
2023-01-21T09:57:33.223Z,1.81
2023-01-21T10:02:49.541Z,1.79
2023-01-21T10:08:11.696Z,1.82
2023-01-21T10:14:02.219Z,1.86
2023-01-21T10:19:06.623Z,1.90
2023-01-21T10:24:17.364Z,1.92
2023-01-21T10:29:24.756Z,1.94
2023-01-21T10:34:31.767Z,1.97
2023-01-21T10:40:00.372Z,1.97
2023-01-21T10:45:12.071Z,2.02
2023-01-21T10:50:21.239Z,2.07
2023-01-21T10:56:00.717Z,2.13
2023-01-21T11:01:08.322Z,2.18
2023-01-21T11:06:15.219Z,2.22
2023-01-21T11:11:31.002Z,2.29
2023-01-21T11:16:39.957Z,2.37
2023-01-21T11:22:00.879Z,2.42
2023-01-21T11:27:03.877Z,2.44
2023-01-21T11:32:18.843Z,2.42
2023-01-21T11:37:30.577Z,2.43
2023-01-21T11:42:33.939Z,2.46
2023-01-21T11:47:38.712Z,2.46
2023-01-21T11:52:42.264Z,2.39
2023-01-21T11:57:50.594Z,2.45
2023-01-21T12:02:59.999Z,2.51
2023-01-21T12:08:05.922Z,2.52
2023-01-21T12:13:29.776Z,2.53
2023-01-21T12:18:47.576Z,2.53
2023-01-21T12:24:00.829Z,2.48
2023-01-21T12:29:23.716Z,2.44
2023-01-21T12:34:51.071Z,2.46
2023-01-21T12:39:58.477Z,2.50
2023-01-21T12:45:12.788Z,2.47
2023-01-21T12:50:23.133Z,2.52
2023-01-21T12:55:42.824Z,2.56
2023-01-21T13:00:50.498Z,2.52
2023-01-21T13:06:24.006Z,2.48
2023-01-21T13:11:56.357Z,2.49
2023-01-21T13:17:25.685Z,2.44
2023-01-21T13:22:44.558Z,2.43
2023-01-21T13:28:22.795Z,2.44
2023-01-21T13:33:42.390Z,2.43
2023-01-21T13:38:52.667Z,2.43
2023-01-21T13:44:19.941Z,2.46
2023-01-21T13:49:50.703Z,2.42
2023-01-21T13:55:19.405Z,2.40
2023-01-21T14:00:28.774Z,2.40
2023-01-21T14:05:53.180Z,2.38
2023-01-21T14:10:58.225Z,2.39
2023-01-21T14:16:02.806Z,2.36
2023-01-21T14:21:28.405Z,2.39
2023-01-21T14:26:45.137Z,2.34
2023-01-21T14:31:55.858Z,2.28
2023-01-21T14:37:28.320Z,2.23
2023-01-21T14:42:41.967Z,2.24
2023-01-21T14:47:47.767Z,2.23
2023-01-21T14:52:50.760Z,2.19
2023-01-21T14:57:54.863Z,2.17
2023-01-21T15:03:20.320Z,2.18
2023-01-21T15:08:28.152Z,2.12
2023-01-21T15:13:33.517Z,2.11
2023-01-21T15:18:39.515Z,2.12
2023-01-21T15:23:42.486Z,2.13
2023-01-21T15:28:48.153Z,2.11
2023-01-21T15:33:56.838Z,2.10
2023-01-21T15:39:03.587Z,2.10
2023-01-21T15:44:18.884Z,2.09
2023-01-21T15:49:37.556Z,2.13
2023-01-21T15:54:51.826Z,2.16
2023-01-21T16:00:22.654Z,2.21
2023-01-21T16:05:38.697Z,2.23
2023-01-21T16:11:14.779Z,2.25
2023-01-21T16:16:41.437Z,2.26
2023-01-21T16:21:47.111Z,2.30
2023-01-21T16:26:50.011Z,2.26
2023-01-21T16:32:00.989Z,2.26
2023-01-21T16:37:07.594Z,2.28
2023-01-21T16:42:34.356Z,2.26
2023-01-21T16:47:37.617Z,2.28
2023-01-21T16:52:40.575Z,2.22
2023-01-21T16:57:49.638Z,2.23
2023-01-21T17:02:53.083Z,2.24
2023-01-21T17:08:03.433Z,2.26
2023-01-21T17:13:14.207Z,2.22
2023-01-21T17:18:22.029Z,2.18
2023-01-21T17:23:30.151Z,2.18
2023-01-21T17:28:39.717Z,2.16
2023-01-21T17:33:44.360Z,2.14
2023-01-21T17:38:47.586Z,2.08
2023-01-21T17:43:53.139Z,2.07
2023-01-21T17:49:10.995Z,2.03
2023-01-21T17:54:26.185Z,2.04
2023-01-21T17:59:34.414Z,1.99
2023-01-21T18:04:38.032Z,1.99
2023-01-21T18:09:42.578Z,1.99
2023-01-21T18:14:46.708Z,1.96
2023-01-21T18:19:50.030Z,1.96
2023-01-21T18:24:52.927Z,1.99
2023-01-21T18:29:57.270Z,1.97
2023-01-21T18:35:00.167Z,1.97
2023-01-21T18:40:05.944Z,2.02
2023-01-21T18:45:15.081Z,2.06
2023-01-21T18:50:21.819Z,2.04
2023-01-21T18:55:30.023Z,2.04
2023-01-21T19:00:36.665Z,2.05
2023-01-21T19:05:42.073Z,2.03
2023-01-21T19:10:45.077Z,2.04
2023-01-21T19:15:49.613Z,2.05
2023-01-21T19:20:52.531Z,2.02
2023-01-21T19:25:57.796Z,2.01
2023-01-21T19:31:00.849Z,1.99
2023-01-21T19:36:12.274Z,1.99
2023-01-21T19:41:15.197Z,2.03
2023-01-21T19:46:18.651Z,2.04
2023-01-21T19:51:21.955Z,2.01
2023-01-21T19:56:25.046Z,2.01
2023-01-21T20:01:28.659Z,1.97
2023-01-21T20:06:37.809Z,1.96
2023-01-21T20:11:41.234Z,1.88
2023-01-21T20:16:48.685Z,1.92
2023-01-21T20:22:01.227Z,1.86
2023-01-21T20:27:07.843Z,1.89
2023-01-21T20:32:12.704Z,2.29
2023-01-21T20:37:15.721Z,3.40
2023-01-21T20:42:18.609Z,3.87
2023-01-21T20:47:32.698Z,3.21
2023-01-21T20:52:41.626Z,2.93
2023-01-21T20:57:46.269Z,3.67
2023-01-21T21:02:55.638Z,3.25
2023-01-21T21:07:59.148Z,2.75
2023-01-21T21:13:02.973Z,2.50
2023-01-21T21:18:07.007Z,2.30
2023-01-21T21:23:15.037Z,2.20
2023-01-21T21:28:19.159Z,2.14
2023-01-21T21:33:22.581Z,2.03
2023-01-21T21:38:26.296Z,1.94
2023-01-21T21:43:40.980Z,1.95
2023-01-21T21:48:46.347Z,1.98
2023-01-21T21:53:49.244Z,1.97
2023-01-21T21:58:52.570Z,1.99
2023-01-21T22:03:55.461Z,1.97
2023-01-21T22:08:59.033Z,2.00
2023-01-21T22:14:04.313Z,2.00
2023-01-21T22:19:07.448Z,2.00
2023-01-21T22:24:10.350Z,1.99
2023-01-21T22:29:13.967Z,1.97
2023-01-21T22:34:16.875Z,1.98
2023-01-21T22:39:19.989Z,1.97
2023-01-21T22:44:22.888Z,1.93
2023-01-21T22:49:25.797Z,1.91
2023-01-21T22:54:28.707Z,1.89
2023-01-21T22:59:33.629Z,1.83
2023-01-21T23:04:38.192Z,1.83
2023-01-21T23:09:41.072Z,1.81
2023-01-21T23:14:44.515Z,1.81
2023-01-21T23:19:47.316Z,1.84
2023-01-21T23:24:50.338Z,1.84
2023-01-21T23:29:53.228Z,1.77
2023-01-21T23:34:56.130Z,1.77
2023-01-21T23:39:59.032Z,1.75
2023-01-21T23:45:02.038Z,1.73
2023-01-21T23:50:08.741Z,1.69
2023-01-21T23:55:12.025Z,1.71
